sensor_id;sensor_type;location;lat;lon;timestamp;P1;durP1;ratioP1;P2;durP2;ratioP2
25049;SDS011;13046;49.814;9.918;2023-02-19T00:01:28;10.07;;;9.07;;
25049;SDS011;13046;49.814;9.918;2023-02-19T00:03:59;12.90;;;8.95;;
25049;SDS011;13046;49.814;9.918;2023-02-19T00:06:27;11.10;;;9.25;;
25049;SDS011;13046;49.814;9.918;2023-02-19T00:08:54;11.10;;;9.07;;
25049;SDS011;13046;49.814;9.918;2023-02-19T00:11:20;10.23;;;9.13;;
25049;SDS011;13046;49.814;9.918;2023-02-19T00:13:49;8.43;;;7.53;;
25049;SDS011;13046;49.814;9.918;2023-02-19T00:16:20;9.05;;;8.15;;
25049;SDS011;13046;49.814;9.918;2023-02-19T00:18:51;9.82;;;8.85;;
25049;SDS011;13046;49.814;9.918;2023-02-19T00:21:18;9.52;;;8.57;;
25049;SDS011;13046;49.814;9.918;2023-02-19T00:24:03;10.05;;;9.00;;
25049;SDS011;13046;49.814;9.918;2023-02-19T00:26:31;10.15;;;9.25;;
25049;SDS011;13046;49.814;9.918;2023-02-19T00:28:57;11.20;;;8.48;;
25049;SDS011;13046;49.814;9.918;2023-02-19T00:31:25;10.30;;;9.13;;
25049;SDS011;13046;49.814;9.918;2023-02-19T00:33:55;11.00;;;9.65;;
25049;SDS011;13046;49.814;9.918;2023-02-19T00:36:22;11.18;;;9.40;;
25049;SDS011;13046;49.814;9.918;2023-02-19T00:38:49;9.93;;;8.95;;
25049;SDS011;13046;49.814;9.918;2023-02-19T00:41:15;9.68;;;8.68;;
25049;SDS011;13046;49.814;9.918;2023-02-19T00:46:12;10.45;;;9.48;;
25049;SDS011;13046;49.814;9.918;2023-02-19T00:48:39;10.15;;;9.15;;
25049;SDS011;13046;49.814;9.918;2023-02-19T00:51:05;9.57;;;8.77;;
25049;SDS011;13046;49.814;9.918;2023-02-19T00:53:30;11.70;;;10.10;;
25049;SDS011;13046;49.814;9.918;2023-02-19T00:55:56;9.93;;;9.02;;
25049;SDS011;13046;49.814;9.918;2023-02-19T00:58:22;11.13;;;10.10;;
25049;SDS011;13046;49.814;9.918;2023-02-19T01:00:47;9.80;;;8.90;;
25049;SDS011;13046;49.814;9.918;2023-02-19T01:03:13;11.15;;;10.15;;
25049;SDS011;13046;49.814;9.918;2023-02-19T01:05:39;10.88;;;9.77;;
25049;SDS011;13046;49.814;9.918;2023-02-19T01:08:05;12.65;;;11.45;;
25049;SDS011;13046;49.814;9.918;2023-02-19T01:10:31;14.70;;;13.10;;
25049;SDS011;13046;49.814;9.918;2023-02-19T01:12:56;12.20;;;10.80;;
25049;SDS011;13046;49.814;9.918;2023-02-19T01:15:22;13.13;;;11.77;;
25049;SDS011;13046;49.814;9.918;2023-02-19T01:17:48;13.13;;;11.93;;
25049;SDS011;13046;49.814;9.918;2023-02-19T01:20:14;15.00;;;11.90;;
25049;SDS011;13046;49.814;9.918;2023-02-19T01:22:39;11.85;;;10.60;;
25049;SDS011;13046;49.814;9.918;2023-02-19T01:25:05;12.18;;;10.57;;
25049;SDS011;13046;49.814;9.918;2023-02-19T01:27:31;11.90;;;10.80;;
25049;SDS011;13046;49.814;9.918;2023-02-19T01:29:56;11.80;;;10.70;;
25049;SDS011;13046;49.814;9.918;2023-02-19T01:32:22;12.25;;;10.95;;
25049;SDS011;13046;49.814;9.918;2023-02-19T01:34:48;10.85;;;9.70;;
25049;SDS011;13046;49.814;9.918;2023-02-19T01:37:13;11.10;;;10.07;;
25049;SDS011;13046;49.814;9.918;2023-02-19T01:39:39;11.32;;;10.32;;
25049;SDS011;13046;49.814;9.918;2023-02-19T01:42:06;13.55;;;11.20;;
25049;SDS011;13046;49.814;9.918;2023-02-19T01:47:03;11.55;;;10.35;;
25049;SDS011;13046;49.814;9.918;2023-02-19T01:49:30;11.75;;;9.80;;
25049;SDS011;13046;49.814;9.918;2023-02-19T01:54:39;12.10;;;10.88;;
25049;SDS011;13046;49.814;9.918;2023-02-19T01:57:12;16.25;;;11.60;;
25049;SDS011;13046;49.814;9.918;2023-02-19T01:59:45;10.80;;;9.73;;
25049;SDS011;13046;49.814;9.918;2023-02-19T02:02:19;10.70;;;9.60;;
25049;SDS011;13046;49.814;9.918;2023-02-19T02:04:45;13.82;;;10.40;;
25049;SDS011;13046;49.814;9.918;2023-02-19T02:07:13;10.80;;;8.73;;
25049;SDS011;13046;49.814;9.918;2023-02-19T02:09:58;14.35;;;9.55;;
25049;SDS011;13046;49.814;9.918;2023-02-19T02:12:42;11.02;;;10.02;;
25049;SDS011;13046;49.814;9.918;2023-02-19T02:15:08;11.73;;;10.15;;
25049;SDS011;13046;49.814;9.918;2023-02-19T02:20:23;13.65;;;10.13;;
25049;SDS011;13046;49.814;9.918;2023-02-19T02:25:54;9.90;;;8.70;;
25049;SDS011;13046;49.814;9.918;2023-02-19T02:28:55;9.32;;;8.43;;
25049;SDS011;13046;49.814;9.918;2023-02-19T02:31:48;8.85;;;7.97;;
25049;SDS011;13046;49.814;9.918;2023-02-19T02:34:28;9.70;;;8.70;;
25049;SDS011;13046;49.814;9.918;2023-02-19T02:36:59;8.98;;;8.18;;
25049;SDS011;13046;49.814;9.918;2023-02-19T02:39:27;10.02;;;9.13;;
25049;SDS011;13046;49.814;9.918;2023-02-19T02:41:57;9.07;;;8.18;;
25049;SDS011;13046;49.814;9.918;2023-02-19T02:44:49;9.77;;;8.77;;
25049;SDS011;13046;49.814;9.918;2023-02-19T02:47:43;8.85;;;8.05;;
25049;SDS011;13046;49.814;9.918;2023-02-19T02:50:34;8.70;;;7.72;;
25049;SDS011;13046;49.814;9.918;2023-02-19T02:53:09;10.27;;;7.97;;
25049;SDS011;13046;49.814;9.918;2023-02-19T02:55:58;11.55;;;7.28;;
25049;SDS011;13046;49.814;9.918;2023-02-19T02:58:24;7.97;;;7.18;;
25049;SDS011;13046;49.814;9.918;2023-02-19T03:00:56;8.65;;;7.40;;
25049;SDS011;13046;49.814;9.918;2023-02-19T03:03:46;7.32;;;6.55;;
25049;SDS011;13046;49.814;9.918;2023-02-19T03:06:16;8.45;;;7.55;;
25049;SDS011;13046;49.814;9.918;2023-02-19T03:11:10;7.68;;;6.90;;
25049;SDS011;13046;49.814;9.918;2023-02-19T03:19:39;6.85;;;6.18;;
25049;SDS011;13046;49.814;9.918;2023-02-19T03:22:16;6.28;;;5.57;;
25049;SDS011;13046;49.814;9.918;2023-02-19T03:25:12;6.90;;;6.30;;
25049;SDS011;13046;49.814;9.918;2023-02-19T03:28:06;6.60;;;6.00;;
25049;SDS011;13046;49.814;9.918;2023-02-19T03:30:34;6.05;;;5.55;;
25049;SDS011;13046;49.814;9.918;2023-02-19T03:33:25;6.60;;;6.00;;
25049;SDS011;13046;49.814;9.918;2023-02-19T03:35:54;6.05;;;5.55;;
25049;SDS011;13046;49.814;9.918;2023-02-19T03:38:40;6.05;;;5.45;;
25049;SDS011;13046;49.814;9.918;2023-02-19T03:43:58;6.75;;;6.10;;
25049;SDS011;13046;49.814;9.918;2023-02-19T03:46:56;6.05;;;5.45;;
25049;SDS011;13046;49.814;9.918;2023-02-19T03:49:35;6.90;;;6.25;;
25049;SDS011;13046;49.814;9.918;2023-02-19T03:55:15;6.25;;;5.65;;
25049;SDS011;13046;49.814;9.918;2023-02-19T03:57:38;6.43;;;5.75;;
25049;SDS011;13046;49.814;9.918;2023-02-19T04:00:20;6.70;;;5.82;;
25049;SDS011;13046;49.814;9.918;2023-02-19T04:02:59;6.00;;;5.40;;
25049;SDS011;13046;49.814;9.918;2023-02-19T04:05:30;6.50;;;5.57;;
25049;SDS011;13046;49.814;9.918;2023-02-19T04:08:01;7.30;;;6.60;;
25049;SDS011;13046;49.814;9.918;2023-02-19T04:10:39;6.88;;;6.28;;
25049;SDS011;13046;49.814;9.918;2023-02-19T04:13:09;9.43;;;6.72;;
25049;SDS011;13046;49.814;9.918;2023-02-19T04:15:42;6.82;;;6.13;;
25049;SDS011;13046;49.814;9.918;2023-02-19T04:18:15;7.05;;;6.40;;
25049;SDS011;13046;49.814;9.918;2023-02-19T04:20:44;5.90;;;5.17;;
25049;SDS011;13046;49.814;9.918;2023-02-19T04:23:11;7.47;;;6.35;;
25049;SDS011;13046;49.814;9.918;2023-02-19T04:25:43;5.75;;;5.25;;
25049;SDS011;13046;49.814;9.918;2023-02-19T04:28:12;6.57;;;5.95;;
25049;SDS011;13046;49.814;9.918;2023-02-19T04:30:41;6.28;;;5.68;;
25049;SDS011;13046;49.814;9.918;2023-02-19T04:33:07;5.78;;;5.28;;
25049;SDS011;13046;49.814;9.918;2023-02-19T04:35:33;6.60;;;6.00;;
25049;SDS011;13046;49.814;9.918;2023-02-19T04:37:59;6.80;;;6.13;;
25049;SDS011;13046;49.814;9.918;2023-02-19T04:40:24;5.68;;;5.15;;
25049;SDS011;13046;49.814;9.918;2023-02-19T04:42:50;11.05;;;5.80;;
25049;SDS011;13046;49.814;9.918;2023-02-19T04:45:16;5.70;;;5.20;;
25049;SDS011;13046;49.814;9.918;2023-02-19T04:47:41;5.90;;;5.32;;
25049;SDS011;13046;49.814;9.918;2023-02-19T04:50:07;5.28;;;4.78;;
25049;SDS011;13046;49.814;9.918;2023-02-19T04:52:33;5.60;;;5.03;;
25049;SDS011;13046;49.814;9.918;2023-02-19T04:54:59;5.45;;;5.03;;
25049;SDS011;13046;49.814;9.918;2023-02-19T04:57:25;6.13;;;5.53;;
25049;SDS011;13046;49.814;9.918;2023-02-19T04:59:50;5.40;;;4.93;;
25049;SDS011;13046;49.814;9.918;2023-02-19T05:02:18;5.45;;;4.95;;
25049;SDS011;13046;49.814;9.918;2023-02-19T05:04:44;7.32;;;5.22;;
25049;SDS011;13046;49.814;9.918;2023-02-19T05:07:09;4.93;;;4.53;;
25049;SDS011;13046;49.814;9.918;2023-02-19T05:09:35;5.03;;;4.63;;
25049;SDS011;13046;49.814;9.918;2023-02-19T05:12:01;4.53;;;4.13;;
25049;SDS011;13046;49.814;9.918;2023-02-19T05:14:26;6.03;;;4.55;;
25049;SDS011;13046;49.814;9.918;2023-02-19T05:16:52;5.43;;;4.93;;
25049;SDS011;13046;49.814;9.918;2023-02-19T05:19:17;6.35;;;5.75;;
25049;SDS011;13046;49.814;9.918;2023-02-19T05:21:43;5.20;;;4.72;;
25049;SDS011;13046;49.814;9.918;2023-02-19T05:24:09;5.30;;;4.90;;
25049;SDS011;13046;49.814;9.918;2023-02-19T05:26:34;6.65;;;6.05;;
25049;SDS011;13046;49.814;9.918;2023-02-19T05:29:00;6.15;;;5.65;;
25049;SDS011;13046;49.814;9.918;2023-02-19T05:31:26;6.85;;;5.93;;
25049;SDS011;13046;49.814;9.918;2023-02-19T05:33:53;6.95;;;6.30;;
25049;SDS011;13046;49.814;9.918;2023-02-19T05:36:20;6.57;;;5.97;;
25049;SDS011;13046;49.814;9.918;2023-02-19T05:38:46;6.57;;;5.97;;
25049;SDS011;13046;49.814;9.918;2023-02-19T05:41:17;9.38;;;6.20;;
25049;SDS011;13046;49.814;9.918;2023-02-19T05:43:45;6.70;;;6.10;;
25049;SDS011;13046;49.814;9.918;2023-02-19T05:46:13;6.45;;;5.85;;
25049;SDS011;13046;49.814;9.918;2023-02-19T05:48:40;6.00;;;5.50;;
25049;SDS011;13046;49.814;9.918;2023-02-19T05:51:07;6.75;;;6.05;;
25049;SDS011;13046;49.814;9.918;2023-02-19T05:53:35;6.18;;;5.68;;
25049;SDS011;13046;49.814;9.918;2023-02-19T05:56:01;5.70;;;5.10;;
25049;SDS011;13046;49.814;9.918;2023-02-19T05:58:27;6.97;;;5.70;;
25049;SDS011;13046;49.814;9.918;2023-02-19T06:00:53;7.72;;;5.07;;
25049;SDS011;13046;49.814;9.918;2023-02-19T06:03:19;6.72;;;5.82;;
25049;SDS011;13046;49.814;9.918;2023-02-19T06:05:45;8.57;;;7.45;;
25049;SDS011;13046;49.814;9.918;2023-02-19T06:08:11;6.68;;;6.07;;
25049;SDS011;13046;49.814;9.918;2023-02-19T06:10:38;6.15;;;5.43;;
25049;SDS011;13046;49.814;9.918;2023-02-19T06:13:05;4.40;;;4.00;;
25049;SDS011;13046;49.814;9.918;2023-02-19T06:15:32;4.65;;;4.25;;
25049;SDS011;13046;49.814;9.918;2023-02-19T06:17:57;5.03;;;4.53;;
25049;SDS011;13046;49.814;9.918;2023-02-19T06:20:23;5.55;;;4.95;;
25049;SDS011;13046;49.814;9.918;2023-02-19T06:22:49;5.38;;;4.88;;
25049;SDS011;13046;49.814;9.918;2023-02-19T06:25:15;4.60;;;4.20;;
25049;SDS011;13046;49.814;9.918;2023-02-19T06:27:41;4.43;;;4.03;;
25049;SDS011;13046;49.814;9.918;2023-02-19T06:30:07;4.55;;;3.78;;
25049;SDS011;13046;49.814;9.918;2023-02-19T06:32:33;3.85;;;3.55;;
25049;SDS011;13046;49.814;9.918;2023-02-19T06:34:59;3.85;;;3.55;;
25049;SDS011;13046;49.814;9.918;2023-02-19T06:37:25;3.83;;;3.53;;
25049;SDS011;13046;49.814;9.918;2023-02-19T06:39:51;3.70;;;3.40;;
25049;SDS011;13046;49.814;9.918;2023-02-19T06:42:16;4.00;;;3.65;;
25049;SDS011;13046;49.814;9.918;2023-02-19T06:44:42;4.45;;;4.05;;
25049;SDS011;13046;49.814;9.918;2023-02-19T06:47:07;3.83;;;3.40;;
25049;SDS011;13046;49.814;9.918;2023-02-19T06:49:33;3.83;;;3.42;;
25049;SDS011;13046;49.814;9.918;2023-02-19T06:51:59;3.92;;;3.35;;
25049;SDS011;13046;49.814;9.918;2023-02-19T06:54:26;4.72;;;3.85;;
25049;SDS011;13046;49.814;9.918;2023-02-19T06:56:51;4.10;;;3.05;;
25049;SDS011;13046;49.814;9.918;2023-02-19T06:59:17;3.83;;;3.53;;
25049;SDS011;13046;49.814;9.918;2023-02-19T07:01:43;3.88;;;3.35;;
25049;SDS011;13046;49.814;9.918;2023-02-19T07:04:10;4.88;;;3.65;;
25049;SDS011;13046;49.814;9.918;2023-02-19T07:06:36;3.22;;;3.00;;
25049;SDS011;13046;49.814;9.918;2023-02-19T07:09:02;4.60;;;4.20;;
25049;SDS011;13046;49.814;9.918;2023-02-19T07:11:30;3.70;;;3.35;;
25049;SDS011;13046;49.814;9.918;2023-02-19T07:13:58;3.88;;;3.47;;
25049;SDS011;13046;49.814;9.918;2023-02-19T07:16:25;3.08;;;2.75;;
25049;SDS011;13046;49.814;9.918;2023-02-19T07:18:51;4.30;;;3.90;;
25049;SDS011;13046;49.814;9.918;2023-02-19T07:21:19;3.58;;;3.28;;
25049;SDS011;13046;49.814;9.918;2023-02-19T07:23:45;4.32;;;3.92;;
25049;SDS011;13046;49.814;9.918;2023-02-19T07:26:12;4.35;;;3.20;;
25049;SDS011;13046;49.814;9.918;2023-02-19T07:28:49;4.70;;;3.05;;
25049;SDS011;13046;49.814;9.918;2023-02-19T07:31:16;4.10;;;3.40;;
25049;SDS011;13046;49.814;9.918;2023-02-19T07:33:43;3.17;;;2.92;;
25049;SDS011;13046;49.814;9.918;2023-02-19T07:36:10;3.95;;;2.75;;
25049;SDS011;13046;49.814;9.918;2023-02-19T07:38:36;3.50;;;3.20;;
25049;SDS011;13046;49.814;9.918;2023-02-19T07:41:02;3.85;;;3.30;;
25049;SDS011;13046;49.814;9.918;2023-02-19T07:43:30;3.10;;;2.58;;
25049;SDS011;13046;49.814;9.918;2023-02-19T07:45:57;5.32;;;2.90;;
25049;SDS011;13046;49.814;9.918;2023-02-19T07:48:26;3.85;;;2.80;;
25049;SDS011;13046;49.814;9.918;2023-02-19T07:50:55;3.28;;;2.90;;
25049;SDS011;13046;49.814;9.918;2023-02-19T07:53:23;3.47;;;2.75;;
25049;SDS011;13046;49.814;9.918;2023-02-19T07:55:49;2.55;;;2.35;;
25049;SDS011;13046;49.814;9.918;2023-02-19T07:58:15;2.83;;;2.60;;
25049;SDS011;13046;49.814;9.918;2023-02-19T08:00:41;3.40;;;3.10;;
25049;SDS011;13046;49.814;9.918;2023-02-19T08:03:07;2.80;;;2.45;;
25049;SDS011;13046;49.814;9.918;2023-02-19T08:05:35;4.07;;;2.83;;
25049;SDS011;13046;49.814;9.918;2023-02-19T08:08:04;3.00;;;2.65;;
25049;SDS011;13046;49.814;9.918;2023-02-19T08:10:35;3.40;;;2.75;;
25049;SDS011;13046;49.814;9.918;2023-02-19T08:13:19;3.13;;;2.55;;
25049;SDS011;13046;49.814;9.918;2023-02-19T08:18:33;5.35;;;2.72;;
25049;SDS011;13046;49.814;9.918;2023-02-19T08:20:58;3.05;;;2.13;;
25049;SDS011;13046;49.814;9.918;2023-02-19T08:23:25;3.10;;;2.70;;
25049;SDS011;13046;49.814;9.918;2023-02-19T08:25:51;2.63;;;2.42;;
25049;SDS011;13046;49.814;9.918;2023-02-19T08:28:20;5.78;;;3.00;;
25049;SDS011;13046;49.814;9.918;2023-02-19T08:30:46;3.65;;;2.83;;
25049;SDS011;13046;49.814;9.918;2023-02-19T08:33:17;4.50;;;3.15;;
25049;SDS011;13046;49.814;9.918;2023-02-19T08:35:45;5.18;;;3.05;;
25049;SDS011;13046;49.814;9.918;2023-02-19T08:38:12;4.32;;;2.45;;
25049;SDS011;13046;49.814;9.918;2023-02-19T08:40:40;3.63;;;3.03;;
25049;SDS011;13046;49.814;9.918;2023-02-19T08:43:10;3.40;;;2.70;;
25049;SDS011;13046;49.814;9.918;2023-02-19T08:45:37;5.68;;;2.88;;
25049;SDS011;13046;49.814;9.918;2023-02-19T08:48:05;3.65;;;2.97;;
25049;SDS011;13046;49.814;9.918;2023-02-19T08:50:31;5.10;;;3.25;;
25049;SDS011;13046;49.814;9.918;2023-02-19T08:53:00;4.38;;;3.00;;
25049;SDS011;13046;49.814;9.918;2023-02-19T08:55:27;3.42;;;3.13;;
25049;SDS011;13046;49.814;9.918;2023-02-19T08:57:53;4.57;;;3.10;;
25049;SDS011;13046;49.814;9.918;2023-02-19T09:00:19;5.65;;;3.60;;
25049;SDS011;13046;49.814;9.918;2023-02-19T09:02:45;5.53;;;3.40;;
25049;SDS011;13046;49.814;9.918;2023-02-19T09:05:12;5.45;;;2.90;;
25049;SDS011;13046;49.814;9.918;2023-02-19T09:07:38;4.03;;;3.58;;
25049;SDS011;13046;49.814;9.918;2023-02-19T09:10:04;4.82;;;3.17;;
25049;SDS011;13046;49.814;9.918;2023-02-19T09:12:30;3.17;;;2.58;;
25049;SDS011;13046;49.814;9.918;2023-02-19T09:14:57;4.07;;;2.50;;
25049;SDS011;13046;49.814;9.918;2023-02-19T09:17:24;5.22;;;2.55;;
25049;SDS011;13046;49.814;9.918;2023-02-19T09:19:50;4.32;;;2.45;;
25049;SDS011;13046;49.814;9.918;2023-02-19T09:22:16;6.00;;;3.53;;
25049;SDS011;13046;49.814;9.918;2023-02-19T09:24:42;5.13;;;2.92;;
25049;SDS011;13046;49.814;9.918;2023-02-19T09:27:08;5.93;;;2.53;;
25049;SDS011;13046;49.814;9.918;2023-02-19T09:29:38;2.45;;;2.17;;
25049;SDS011;13046;49.814;9.918;2023-02-19T09:32:04;3.67;;;3.08;;
25049;SDS011;13046;49.814;9.918;2023-02-19T09:34:29;9.25;;;3.00;;
25049;SDS011;13046;49.814;9.918;2023-02-19T09:36:55;8.63;;;4.65;;
25049;SDS011;13046;49.814;9.918;2023-02-19T09:39:21;5.00;;;2.78;;
25049;SDS011;13046;49.814;9.918;2023-02-19T09:41:48;2.75;;;2.33;;
25049;SDS011;13046;49.814;9.918;2023-02-19T09:44:35;4.40;;;2.47;;
25049;SDS011;13046;49.814;9.918;2023-02-19T09:47:11;3.75;;;2.90;;
25049;SDS011;13046;49.814;9.918;2023-02-19T09:49:44;5.72;;;2.80;;
25049;SDS011;13046;49.814;9.918;2023-02-19T09:55:27;5.95;;;2.47;;
25049;SDS011;13046;49.814;9.918;2023-02-19T09:58:05;3.05;;;2.20;;
25049;SDS011;13046;49.814;9.918;2023-02-19T10:00:42;4.70;;;2.05;;
25049;SDS011;13046;49.814;9.918;2023-02-19T10:03:11;4.63;;;2.50;;
25049;SDS011;13046;49.814;9.918;2023-02-19T10:05:44;5.68;;;2.20;;
25049;SDS011;13046;49.814;9.918;2023-02-19T10:08:11;3.30;;;2.40;;
25049;SDS011;13046;49.814;9.918;2023-02-19T10:10:42;4.47;;;2.00;;
25049;SDS011;13046;49.814;9.918;2023-02-19T10:13:21;3.90;;;1.95;;
25049;SDS011;13046;49.814;9.918;2023-02-19T10:15:53;1.90;;;1.80;;
25049;SDS011;13046;49.814;9.918;2023-02-19T10:18:22;2.85;;;2.03;;
25049;SDS011;13046;49.814;9.918;2023-02-19T10:20:52;2.35;;;1.95;;
25049;SDS011;13046;49.814;9.918;2023-02-19T10:23:19;4.25;;;2.53;;
25049;SDS011;13046;49.814;9.918;2023-02-19T10:25:46;4.90;;;2.10;;
25049;SDS011;13046;49.814;9.918;2023-02-19T10:28:23;2.53;;;2.33;;
25049;SDS011;13046;49.814;9.918;2023-02-19T10:30:55;2.63;;;1.95;;
25049;SDS011;13046;49.814;9.918;2023-02-19T10:33:23;2.03;;;1.83;;
25049;SDS011;13046;49.814;9.918;2023-02-19T10:38:19;2.42;;;1.73;;
25049;SDS011;13046;49.814;9.918;2023-02-19T10:40:56;4.70;;;2.70;;
25049;SDS011;13046;49.814;9.918;2023-02-19T10:43:29;4.75;;;2.15;;
25049;SDS011;13046;49.814;9.918;2023-02-19T10:46:13;3.10;;;2.20;;
25049;SDS011;13046;49.814;9.918;2023-02-19T10:48:51;3.58;;;2.63;;
25049;SDS011;13046;49.814;9.918;2023-02-19T10:51:29;4.63;;;2.42;;
25049;SDS011;13046;49.814;9.918;2023-02-19T10:54:18;5.68;;;3.03;;
25049;SDS011;13046;49.814;9.918;2023-02-19T10:57:14;3.47;;;2.53;;
25049;SDS011;13046;49.814;9.918;2023-02-19T10:59:50;5.80;;;3.10;;
25049;SDS011;13046;49.814;9.918;2023-02-19T11:02:18;7.70;;;2.92;;
25049;SDS011;13046;49.814;9.918;2023-02-19T11:07:53;4.40;;;2.70;;
25049;SDS011;13046;49.814;9.918;2023-02-19T11:10:23;3.55;;;3.00;;
25049;SDS011;13046;49.814;9.918;2023-02-19T11:12:53;6.97;;;3.20;;
25049;SDS011;13046;49.814;9.918;2023-02-19T11:20:38;4.75;;;3.00;;
25049;SDS011;13046;49.814;9.918;2023-02-19T11:23:16;4.22;;;2.78;;
25049;SDS011;13046;49.814;9.918;2023-02-19T11:25:46;7.63;;;2.95;;
25049;SDS011;13046;49.814;9.918;2023-02-19T11:34:44;5.28;;;2.25;;
25049;SDS011;13046;49.814;9.918;2023-02-19T11:36:39;3.83;;;2.47;;
25049;SDS011;13046;49.814;9.918;2023-02-19T11:47:22;3.88;;;2.20;;
25049;SDS011;13046;49.814;9.918;2023-02-19T11:55:20;4.95;;;2.85;;
25049;SDS011;13046;49.814;9.918;2023-02-19T11:58:16;6.05;;;2.90;;
25049;SDS011;13046;49.814;9.918;2023-02-19T12:01:23;4.22;;;1.90;;
25049;SDS011;13046;49.814;9.918;2023-02-19T12:17:44;2.53;;;1.80;;
25049;SDS011;13046;49.814;9.918;2023-02-19T12:31:20;2.28;;;1.80;;
25049;SDS011;13046;49.814;9.918;2023-02-19T12:42:13;3.38;;;1.77;;
25049;SDS011;13046;49.814;9.918;2023-02-19T12:45:06;3.92;;;2.67;;
25049;SDS011;13046;49.814;9.918;2023-02-19T12:47:56;3.58;;;2.33;;
25049;SDS011;13046;49.814;9.918;2023-02-19T12:50:26;3.15;;;2.25;;
25049;SDS011;13046;49.814;9.918;2023-02-19T12:52:54;2.85;;;2.53;;
25049;SDS011;13046;49.814;9.918;2023-02-19T12:55:37;3.03;;;2.47;;
25049;SDS011;13046;49.814;9.918;2023-02-19T12:58:07;3.28;;;2.65;;
25049;SDS011;13046;49.814;9.918;2023-02-19T13:00:43;4.97;;;3.60;;
25049;SDS011;13046;49.814;9.918;2023-02-19T13:03:18;5.47;;;2.50;;
25049;SDS011;13046;49.814;9.918;2023-02-19T13:05:55;6.22;;;2.60;;
25049;SDS011;13046;49.814;9.918;2023-02-19T13:08:25;5.65;;;3.03;;
25049;SDS011;13046;49.814;9.918;2023-02-19T13:11:40;3.28;;;2.60;;
25049;SDS011;13046;49.814;9.918;2023-02-19T13:14:15;4.47;;;3.35;;
25049;SDS011;13046;49.814;9.918;2023-02-19T13:16:38;4.93;;;3.72;;
25049;SDS011;13046;49.814;9.918;2023-02-19T13:19:09;4.50;;;3.65;;
25049;SDS011;13046;49.814;9.918;2023-02-19T13:21:39;6.07;;;4.25;;
25049;SDS011;13046;49.814;9.918;2023-02-19T13:24:29;10.77;;;3.80;;
25049;SDS011;13046;49.814;9.918;2023-02-19T13:27:02;5.00;;;3.47;;
25049;SDS011;13046;49.814;9.918;2023-02-19T13:38:00;6.05;;;3.80;;
25049;SDS011;13046;49.814;9.918;2023-02-19T13:40:32;6.80;;;3.45;;
25049;SDS011;13046;49.814;9.918;2023-02-19T13:43:01;6.70;;;3.50;;
25049;SDS011;13046;49.814;9.918;2023-02-19T13:45:32;6.20;;;3.38;;
25049;SDS011;13046;49.814;9.918;2023-02-19T13:47:59;7.25;;;3.67;;
25049;SDS011;13046;49.814;9.918;2023-02-19T13:50:36;10.80;;;4.68;;
25049;SDS011;13046;49.814;9.918;2023-02-19T14:04:22;6.60;;;3.72;;
25049;SDS011;13046;49.814;9.918;2023-02-19T14:12:16;11.10;;;4.53;;
25049;SDS011;13046;49.814;9.918;2023-02-19T14:14:47;8.27;;;4.10;;
25049;SDS011;13046;49.814;9.918;2023-02-19T14:20:01;5.53;;;3.95;;
25049;SDS011;13046;49.814;9.918;2023-02-19T14:22:50;6.07;;;3.92;;
25049;SDS011;13046;49.814;9.918;2023-02-19T14:33:58;6.93;;;3.20;;
25049;SDS011;13046;49.814;9.918;2023-02-19T14:39:12;7.18;;;4.45;;
25049;SDS011;13046;49.814;9.918;2023-02-19T14:41:55;5.30;;;3.63;;
25049;SDS011;13046;49.814;9.918;2023-02-19T14:44:24;6.97;;;4.35;;
25049;SDS011;13046;49.814;9.918;2023-02-19T14:46:55;4.68;;;4.10;;
25049;SDS011;13046;49.814;9.918;2023-02-19T14:49:38;5.88;;;4.00;;
25049;SDS011;13046;49.814;9.918;2023-02-19T14:52:09;4.47;;;3.25;;
25049;SDS011;13046;49.814;9.918;2023-02-19T14:57:43;7.50;;;4.15;;
25049;SDS011;13046;49.814;9.918;2023-02-19T15:02:46;7.35;;;4.03;;
25049;SDS011;13046;49.814;9.918;2023-02-19T15:05:14;6.65;;;3.67;;
25049;SDS011;13046;49.814;9.918;2023-02-19T15:07:47;7.63;;;3.15;;
25049;SDS011;13046;49.814;9.918;2023-02-19T15:10:14;5.68;;;3.95;;
25049;SDS011;13046;49.814;9.918;2023-02-19T15:12:44;4.38;;;3.75;;
25049;SDS011;13046;49.814;9.918;2023-02-19T15:15:17;6.57;;;3.28;;
25049;SDS011;13046;49.814;9.918;2023-02-19T15:17:57;5.10;;;4.20;;
25049;SDS011;13046;49.814;9.918;2023-02-19T15:20:25;3.63;;;2.97;;
25049;SDS011;13046;49.814;9.918;2023-02-19T15:22:52;8.45;;;3.78;;
25049;SDS011;13046;49.814;9.918;2023-02-19T15:25:21;7.88;;;4.15;;
25049;SDS011;13046;49.814;9.918;2023-02-19T15:27:48;5.75;;;3.60;;
25049;SDS011;13046;49.814;9.918;2023-02-19T15:30:19;6.70;;;3.92;;
25049;SDS011;13046;49.814;9.918;2023-02-19T15:32:50;6.28;;;4.38;;
25049;SDS011;13046;49.814;9.918;2023-02-19T15:35:24;7.20;;;4.70;;
25049;SDS011;13046;49.814;9.918;2023-02-19T15:37:51;6.60;;;4.20;;
25049;SDS011;13046;49.814;9.918;2023-02-19T15:40:19;9.15;;;6.43;;
25049;SDS011;13046;49.814;9.918;2023-02-19T15:42:50;6.78;;;5.80;;
25049;SDS011;13046;49.814;9.918;2023-02-19T15:45:22;11.02;;;7.18;;
25049;SDS011;13046;49.814;9.918;2023-02-19T15:48:09;8.57;;;7.22;;
25049;SDS011;13046;49.814;9.918;2023-02-19T15:50:55;9.40;;;5.35;;
25049;SDS011;13046;49.814;9.918;2023-02-19T15:53:32;7.28;;;4.47;;
25049;SDS011;13046;49.814;9.918;2023-02-19T15:58:59;9.65;;;4.13;;
25049;SDS011;13046;49.814;9.918;2023-02-19T16:01:31;4.43;;;4.03;;
25049;SDS011;13046;49.814;9.918;2023-02-19T16:03:59;4.97;;;3.42;;
25049;SDS011;13046;49.814;9.918;2023-02-19T16:06:26;7.07;;;4.50;;
25049;SDS011;13046;49.814;9.918;2023-02-19T16:11:28;9.10;;;4.60;;
25049;SDS011;13046;49.814;9.918;2023-02-19T16:14:20;8.02;;;5.35;;
25049;SDS011;13046;49.814;9.918;2023-02-19T16:19:42;12.13;;;8.52;;
25049;SDS011;13046;49.814;9.918;2023-02-19T16:22:29;7.30;;;4.43;;
25049;SDS011;13046;49.814;9.918;2023-02-19T16:25:04;5.28;;;4.68;;
25049;SDS011;13046;49.814;9.918;2023-02-19T16:29:57;5.80;;;4.95;;
25049;SDS011;13046;49.814;9.918;2023-02-19T16:32:25;10.15;;;7.60;;
25049;SDS011;13046;49.814;9.918;2023-02-19T16:34:50;7.32;;;5.32;;
25049;SDS011;13046;49.814;9.918;2023-02-19T16:42:39;8.27;;;5.57;;
25049;SDS011;13046;49.814;9.918;2023-02-19T16:45:28;8.82;;;5.90;;
25049;SDS011;13046;49.814;9.918;2023-02-19T16:47:54;42.67;;;35.08;;
25049;SDS011;13046;49.814;9.918;2023-02-19T16:50:20;8.57;;;7.70;;
25049;SDS011;13046;49.814;9.918;2023-02-19T16:52:54;7.82;;;5.25;;
25049;SDS011;13046;49.814;9.918;2023-02-19T16:55:22;5.50;;;4.90;;
25049;SDS011;13046;49.814;9.918;2023-02-19T16:57:48;5.47;;;3.63;;
25049;SDS011;13046;49.814;9.918;2023-02-19T17:00:15;4.00;;;3.60;;
25049;SDS011;13046;49.814;9.918;2023-02-19T17:02:55;8.00;;;3.67;;
25049;SDS011;13046;49.814;9.918;2023-02-19T17:05:24;6.15;;;4.65;;
25049;SDS011;13046;49.814;9.918;2023-02-19T17:07:52;6.03;;;4.20;;
25049;SDS011;13046;49.814;9.918;2023-02-19T17:10:19;7.95;;;6.28;;
25049;SDS011;13046;49.814;9.918;2023-02-19T17:12:50;9.70;;;6.35;;
25049;SDS011;13046;49.814;9.918;2023-02-19T17:15:17;8.73;;;6.20;;
25049;SDS011;13046;49.814;9.918;2023-02-19T17:17:43;5.65;;;3.67;;
25049;SDS011;13046;49.814;9.918;2023-02-19T17:20:17;6.00;;;5.13;;
25049;SDS011;13046;49.814;9.918;2023-02-19T17:22:51;5.25;;;3.78;;
25049;SDS011;13046;49.814;9.918;2023-02-19T17:25:18;6.95;;;4.35;;
25049;SDS011;13046;49.814;9.918;2023-02-19T17:27:44;8.63;;;7.03;;
25049;SDS011;13046;49.814;9.918;2023-02-19T17:30:10;12.57;;;9.50;;
25049;SDS011;13046;49.814;9.918;2023-02-19T17:32:41;8.02;;;5.18;;
25049;SDS011;13046;49.814;9.918;2023-02-19T17:35:07;12.98;;;10.20;;
25049;SDS011;13046;49.814;9.918;2023-02-19T17:37:32;14.65;;;13.35;;
25049;SDS011;13046;49.814;9.918;2023-02-19T17:39:58;6.68;;;4.80;;
25049;SDS011;13046;49.814;9.918;2023-02-19T17:42:24;6.82;;;5.50;;
25049;SDS011;13046;49.814;9.918;2023-02-19T17:44:50;7.03;;;5.90;;